createdAt,value
2023-05-16T00:01:38.263Z,17.97
2023-05-16T00:04:06.719Z,17.81
2023-05-16T00:06:35.717Z,17.76
2023-05-16T00:09:03.786Z,17.58
2023-05-16T00:11:31.738Z,17.39
2023-05-16T00:14:01.605Z,17.48
2023-05-16T00:16:30.571Z,17.42
2023-05-16T00:18:59.944Z,17.35
2023-05-16T00:21:27.976Z,17.44
2023-05-16T00:23:55.928Z,17.44
2023-05-16T00:26:23.872Z,17.34
2023-05-16T00:28:51.782Z,17.40
2023-05-16T00:31:21.191Z,17.38
2023-05-16T00:33:49.361Z,17.33
2023-05-16T00:36:17.334Z,17.21
2023-05-16T00:38:45.512Z,17.37
2023-05-16T00:41:13.485Z,17.44
2023-05-16T00:43:41.442Z,17.46
2023-05-16T00:46:09.463Z,17.58
2023-05-16T00:48:38.840Z,17.96
2023-05-16T00:51:09.438Z,18.28
2023-05-16T00:53:37.728Z,18.72
2023-05-16T00:56:06.641Z,19.10
2023-05-16T00:58:34.579Z,19.40
2023-05-16T01:01:03.899Z,19.38
2023-05-16T01:03:32.160Z,19.30
2023-05-16T01:06:01.605Z,19.04
2023-05-16T01:08:29.583Z,18.74
2023-05-16T01:11:02.236Z,18.61
2023-05-16T01:13:33.295Z,18.39
2023-05-16T01:16:06.128Z,18.28
2023-05-16T01:18:38.852Z,18.09
2023-05-16T01:21:09.788Z,18.04
2023-05-16T01:23:43.632Z,17.99
2023-05-16T01:26:19.995Z,17.97
2023-05-16T01:28:48.036Z,17.88
2023-05-16T01:31:16.339Z,17.87
2023-05-16T01:33:44.290Z,17.82
2023-05-16T01:36:15.576Z,17.78
2023-05-16T01:38:50.062Z,17.73
2023-05-16T01:41:22.021Z,17.73
2023-05-16T01:43:52.781Z,17.65
2023-05-16T01:46:22.932Z,17.77
2023-05-16T01:48:54.186Z,17.73
2023-05-16T01:51:23.359Z,17.79
2023-05-16T01:53:51.465Z,17.76
2023-05-16T01:56:21.442Z,17.67
2023-05-16T01:58:49.376Z,17.73
2023-05-16T02:01:17.475Z,17.69
2023-05-16T02:03:45.598Z,17.74
2023-05-16T02:06:13.554Z,17.68
2023-05-16T02:08:41.503Z,17.67
2023-05-16T02:11:09.450Z,17.67
2023-05-16T02:13:38.769Z,17.66
2023-05-16T02:16:07.007Z,17.60
2023-05-16T02:18:35.079Z,17.52
2023-05-16T02:21:02.971Z,17.49
2023-05-16T02:23:30.926Z,17.52
2023-05-16T02:25:58.816Z,17.53
2023-05-16T02:28:26.726Z,17.49
2023-05-16T02:30:59.569Z,17.47
2023-05-16T02:33:27.574Z,17.44
2023-05-16T02:35:55.676Z,17.41
2023-05-16T02:38:23.580Z,17.40
2023-05-16T02:40:51.597Z,17.40
2023-05-16T02:43:19.563Z,17.36
2023-05-16T02:45:47.499Z,17.36
2023-05-16T02:48:16.839Z,17.30
2023-05-16T02:50:44.753Z,17.20
2023-05-16T02:53:12.872Z,17.16
2023-05-16T02:55:40.885Z,17.11
2023-05-16T02:58:09.185Z,17.11
2023-05-16T03:00:37.484Z,17.11
2023-05-16T03:03:06.062Z,17.16
2023-05-16T03:05:35.553Z,17.13
2023-05-16T03:08:03.443Z,17.11
2023-05-16T03:10:31.308Z,17.19
2023-05-16T03:12:59.268Z,17.19
2023-05-16T03:15:27.400Z,17.19
2023-05-16T03:17:55.544Z,17.15
2023-05-16T03:20:23.456Z,17.14
2023-05-16T03:22:52.700Z,17.14
2023-05-16T03:25:20.615Z,17.14
2023-05-16T03:27:48.529Z,17.16
2023-05-16T03:30:16.461Z,17.17
2023-05-16T03:32:45.997Z,17.22
2023-05-16T03:35:13.958Z,17.31
2023-05-16T03:37:41.864Z,17.36
2023-05-16T03:40:12.506Z,17.48
2023-05-16T03:42:40.433Z,17.59
2023-05-16T03:45:09.280Z,17.68
2023-05-16T03:47:37.247Z,17.79
2023-05-16T03:50:06.015Z,17.87
2023-05-16T03:52:34.550Z,17.96
2023-05-16T03:55:03.993Z,18.03
2023-05-16T03:57:33.586Z,18.06
2023-05-16T04:00:01.570Z,18.25
2023-05-16T04:02:29.558Z,18.42
2023-05-16T04:04:57.544Z,18.59
2023-05-16T04:07:25.726Z,18.79
2023-05-16T04:09:53.652Z,18.91
2023-05-16T04:12:21.741Z,19.10
2023-05-16T04:14:51.068Z,19.33
2023-05-16T04:17:19.209Z,19.56
2023-05-16T04:19:47.104Z,19.81
2023-05-16T04:22:15.025Z,20.22
2023-05-16T04:24:42.999Z,20.40
2023-05-16T04:27:10.908Z,20.52
2023-05-16T04:29:38.861Z,20.60
2023-05-16T04:32:08.994Z,20.68
2023-05-16T04:34:39.705Z,20.82
2023-05-16T04:37:09.532Z,20.92
2023-05-16T04:39:37.948Z,21.08
2023-05-16T04:42:06.739Z,21.09
2023-05-16T04:44:34.710Z,21.13
2023-05-16T04:47:02.910Z,21.26
2023-05-16T04:49:32.200Z,21.32
2023-05-16T04:52:00.276Z,21.32
2023-05-16T04:54:28.447Z,21.58
2023-05-16T04:56:57.334Z,21.78
2023-05-16T04:59:25.234Z,22.00
2023-05-16T05:01:53.301Z,22.19
2023-05-16T05:04:21.208Z,22.48
2023-05-16T05:06:50.456Z,22.52
2023-05-16T05:09:18.410Z,22.69
2023-05-16T05:11:46.460Z,22.61
2023-05-16T05:14:14.416Z,22.96
2023-05-16T05:16:42.312Z,23.13
2023-05-16T05:19:10.380Z,23.28
2023-05-16T05:21:38.359Z,23.21
2023-05-16T05:24:08.046Z,23.35
2023-05-16T05:26:35.987Z,23.30
2023-05-16T05:29:05.684Z,23.40
2023-05-16T05:31:35.145Z,23.43
2023-05-16T05:34:03.976Z,23.47
2023-05-16T05:36:32.118Z,23.61
2023-05-16T05:39:00.016Z,23.77
2023-05-16T05:41:29.333Z,23.52
2023-05-16T05:43:57.257Z,23.55
2023-05-16T05:46:25.726Z,23.96
2023-05-16T05:48:53.749Z,25.03
2023-05-16T05:51:21.707Z,26.60
2023-05-16T05:53:50.065Z,28.04
2023-05-16T05:56:18.282Z,28.68
2023-05-16T05:58:47.629Z,27.78
2023-05-16T06:01:15.692Z,27.14
2023-05-16T06:03:43.687Z,26.85
2023-05-16T06:06:11.696Z,26.20
2023-05-16T06:08:39.568Z,25.43
2023-05-16T06:11:07.498Z,25.04
2023-05-16T06:13:35.510Z,24.66
2023-05-16T06:16:06.585Z,24.75
2023-05-16T06:18:35.538Z,24.45
2023-05-16T06:21:03.622Z,24.24
2023-05-16T06:23:31.715Z,24.23
2023-05-16T06:25:59.648Z,24.59
2023-05-16T06:28:27.606Z,24.49
2023-05-16T06:30:55.637Z,24.52
2023-05-16T06:33:24.958Z,24.61
2023-05-16T06:35:53.090Z,24.59
2023-05-16T06:38:21.077Z,24.64
2023-05-16T06:40:49.332Z,24.72
2023-05-16T06:43:17.308Z,24.81
2023-05-16T06:45:46.717Z,24.82
2023-05-16T06:48:15.093Z,24.72
2023-05-16T06:50:48.262Z,24.63
2023-05-16T06:53:16.246Z,24.47
2023-05-16T06:55:44.808Z,24.44
2023-05-16T06:58:12.818Z,24.43
2023-05-16T07:00:40.867Z,24.56
2023-05-16T07:03:08.924Z,24.68
2023-05-16T07:05:36.991Z,24.69
2023-05-16T07:08:07.960Z,24.71
2023-05-16T07:10:36.249Z,24.63
2023-05-16T07:13:05.214Z,24.62
2023-05-16T07:15:33.234Z,24.50
2023-05-16T07:18:01.294Z,24.55
2023-05-16T07:20:29.376Z,24.76
2023-05-16T07:22:59.438Z,24.97
2023-05-16T07:25:29.269Z,25.03
2023-05-16T07:27:57.341Z,25.01
2023-05-16T07:30:25.555Z,24.98
2023-05-16T07:32:53.728Z,25.23
2023-05-16T07:35:21.872Z,25.19
2023-05-16T07:37:49.862Z,25.36
2023-05-16T07:40:18.589Z,25.46
2023-05-16T07:42:47.964Z,25.41
2023-05-16T07:45:15.964Z,25.14
2023-05-16T07:47:44.027Z,25.02
2023-05-16T07:50:12.217Z,25.03
2023-05-16T07:52:40.240Z,25.04
2023-05-16T07:55:09.661Z,24.93
2023-05-16T07:57:37.708Z,24.97
2023-05-16T08:00:09.504Z,25.13
2023-05-16T08:02:37.602Z,25.30
2023-05-16T08:05:06.551Z,25.58
2023-05-16T08:07:34.617Z,25.78
2023-05-16T08:10:02.573Z,25.99
2023-05-16T08:12:31.076Z,26.33
2023-05-16T08:14:59.078Z,26.36
2023-05-16T08:17:28.479Z,26.66
2023-05-16T08:19:56.746Z,26.96
2023-05-16T08:22:24.706Z,27.23
2023-05-16T08:24:53.091Z,27.30
2023-05-16T08:27:21.254Z,26.95
2023-05-16T08:29:49.227Z,26.95
2023-05-16T08:32:17.429Z,26.81
2023-05-16T08:34:46.827Z,26.80
2023-05-16T08:37:16.648Z,26.82
2023-05-16T08:39:45.344Z,26.74
2023-05-16T08:42:13.408Z,26.65
2023-05-16T08:44:41.420Z,26.78
2023-05-16T08:47:15.502Z,26.80
2023-05-16T08:49:43.582Z,26.70
2023-05-16T08:52:12.936Z,26.61
2023-05-16T08:54:40.993Z,26.51
2023-05-16T08:57:09.038Z,26.62
2023-05-16T08:59:36.994Z,26.76
2023-05-16T09:02:05.128Z,26.98
2023-05-16T09:04:33.099Z,27.18
2023-05-16T09:07:01.126Z,27.36
2023-05-16T09:09:30.584Z,27.42
2023-05-16T09:11:58.637Z,27.51
2023-05-16T09:14:26.667Z,27.54
2023-05-16T09:17:04.961Z,27.48
2023-05-16T09:19:38.695Z,27.34
2023-05-16T09:22:07.583Z,27.38
2023-05-16T09:24:39.383Z,27.30
2023-05-16T09:27:10.998Z,27.20
2023-05-16T09:29:38.995Z,27.08
2023-05-16T09:32:11.434Z,26.87
2023-05-16T09:34:41.056Z,26.70
2023-05-16T09:37:10.656Z,26.64
2023-05-16T09:39:40.584Z,26.57
2023-05-16T09:42:11.805Z,26.42
2023-05-16T09:44:39.851Z,26.36
2023-05-16T09:47:07.859Z,26.26
2023-05-16T09:49:38.547Z,26.18
2023-05-16T09:52:06.952Z,26.13
2023-05-16T09:54:35.533Z,26.04
2023-05-16T09:57:04.890Z,26.10
2023-05-16T09:59:32.956Z,26.16
2023-05-16T10:02:01.315Z,26.47
2023-05-16T10:04:29.517Z,26.70
2023-05-16T10:06:58.280Z,26.75
2023-05-16T10:09:26.286Z,26.74
2023-05-16T10:11:54.467Z,27.02
2023-05-16T10:14:23.910Z,27.02
2023-05-16T10:16:52.083Z,27.08
2023-05-16T10:19:21.604Z,27.11
2023-05-16T10:21:53.026Z,27.06
2023-05-16T10:24:29.370Z,27.08
2023-05-16T10:26:57.360Z,27.02
2023-05-16T10:29:27.053Z,27.09
2023-05-16T10:31:55.064Z,27.25
2023-05-16T10:34:23.182Z,27.38
2023-05-16T10:36:51.144Z,27.61
2023-05-16T10:39:19.280Z,27.85
2023-05-16T10:41:47.275Z,27.99
2023-05-16T10:44:16.417Z,28.19
2023-05-16T10:46:45.813Z,28.38
2023-05-16T10:49:23.783Z,28.54
2023-05-16T10:52:05.293Z,28.72
2023-05-16T10:54:37.496Z,28.78
2023-05-16T10:57:10.257Z,28.89
2023-05-16T10:59:42.490Z,28.97
2023-05-16T11:02:25.071Z,29.09
2023-05-16T11:04:53.137Z,28.95
2023-05-16T11:07:22.118Z,28.97
2023-05-16T11:10:11.065Z,28.91
2023-05-16T11:12:40.174Z,28.91
2023-05-16T11:15:21.495Z,28.82
2023-05-16T11:17:51.015Z,28.72
2023-05-16T11:20:28.678Z,28.86
2023-05-16T11:23:26.874Z,29.00
2023-05-16T11:25:56.648Z,29.10
2023-05-16T11:28:25.726Z,29.17
2023-05-16T11:30:56.225Z,29.45
2023-05-16T11:33:25.753Z,29.84
2023-05-16T11:36:13.864Z,30.11
2023-05-16T11:38:44.008Z,30.32
2023-05-16T11:41:12.468Z,30.44
2023-05-16T11:43:41.880Z,30.10
2023-05-16T11:46:12.637Z,29.86
2023-05-16T11:48:42.017Z,29.70
2023-05-16T11:51:10.776Z,29.56
2023-05-16T11:53:39.763Z,29.54
2023-05-16T11:56:09.555Z,29.18
2023-05-16T11:58:38.495Z,29.27
2023-05-16T12:01:06.842Z,29.15
2023-05-16T12:03:36.176Z,28.95
2023-05-16T12:06:05.856Z,28.80
2023-05-16T12:08:34.352Z,28.95
2023-05-16T12:11:02.341Z,29.07
2023-05-16T12:13:30.346Z,29.07
2023-05-16T12:15:58.695Z,29.00
2023-05-16T12:18:27.097Z,28.76
2023-05-16T12:20:55.182Z,28.62
2023-05-16T12:23:24.481Z,28.30
2023-05-16T12:25:55.576Z,28.17
2023-05-16T12:28:23.504Z,28.10
2023-05-16T12:30:51.478Z,27.86
2023-05-16T12:33:19.491Z,27.85
2023-05-16T12:35:48.012Z,27.89
2023-05-16T12:38:17.555Z,27.51
2023-05-16T12:40:47.358Z,27.51
2023-05-16T12:43:16.071Z,27.25
2023-05-16T12:45:44.468Z,27.02
2023-05-16T12:48:15.369Z,26.92
2023-05-16T12:50:43.391Z,26.80
2023-05-16T12:53:13.097Z,26.57
2023-05-16T12:55:41.218Z,26.41
2023-05-16T12:58:10.748Z,26.21
2023-05-16T13:00:39.225Z,26.12
2023-05-16T13:03:07.852Z,25.99
2023-05-16T13:05:36.706Z,25.92
2023-05-16T13:08:05.035Z,25.86
2023-05-16T13:10:33.231Z,25.89
2023-05-16T13:13:01.468Z,25.95
2023-05-16T13:15:31.186Z,25.94
2023-05-16T13:17:59.385Z,25.92
2023-05-16T13:20:28.299Z,25.92
2023-05-16T13:22:56.548Z,26.00
2023-05-16T13:25:24.531Z,26.05
2023-05-16T13:27:52.474Z,26.13
2023-05-16T13:30:20.503Z,26.18
2023-05-16T13:32:49.940Z,26.20
2023-05-16T13:35:18.129Z,26.24
2023-05-16T13:37:46.522Z,26.19
2023-05-16T13:40:14.661Z,26.24
2023-05-16T13:42:45.585Z,26.20
2023-05-16T13:45:13.704Z,26.09
2023-05-16T13:47:41.697Z,26.09
2023-05-16T13:50:12.382Z,26.04
2023-05-16T13:52:40.468Z,26.05
2023-05-16T13:55:09.709Z,26.11
2023-05-16T13:57:37.781Z,26.21
2023-05-16T14:00:35.467Z,26.23
2023-05-16T14:03:00.656Z,26.23
2023-05-16T14:05:30.273Z,26.29
2023-05-16T14:07:58.258Z,26.35
2023-05-16T14:10:26.749Z,26.38
2023-05-16T14:12:55.006Z,26.36
2023-05-16T14:15:23.003Z,26.26
2023-05-16T14:17:51.133Z,26.18
2023-05-16T14:20:19.159Z,26.05
2023-05-16T14:22:48.536Z,26.00
2023-05-16T14:25:16.602Z,25.92
2023-05-16T14:27:44.536Z,25.93
2023-05-16T14:30:13.449Z,25.90
2023-05-16T14:32:41.543Z,25.88
2023-05-16T14:35:10.578Z,25.82
2023-05-16T14:37:38.750Z,25.80
2023-05-16T14:40:10.449Z,25.83
2023-05-16T14:42:38.506Z,25.88
2023-05-16T14:45:07.469Z,25.93
2023-05-16T14:47:35.514Z,25.95
2023-05-16T14:50:03.674Z,25.94
2023-05-16T14:52:31.752Z,25.85
2023-05-16T14:54:59.807Z,25.74
2023-05-16T14:57:29.594Z,25.58
2023-05-16T14:59:58.647Z,25.48
2023-05-16T15:02:27.103Z,25.34
2023-05-16T15:04:55.446Z,25.29
2023-05-16T15:07:23.454Z,25.16
2023-05-16T15:09:51.404Z,25.06
2023-05-16T15:12:19.352Z,24.97
2023-05-16T15:14:48.807Z,24.98
2023-05-16T15:17:16.770Z,24.97
2023-05-16T15:19:44.759Z,24.87
2023-05-16T15:22:12.750Z,24.87
2023-05-16T15:24:40.868Z,24.90
2023-05-16T15:27:08.919Z,24.81
2023-05-16T15:29:36.848Z,24.72
2023-05-16T15:32:07.203Z,24.72
2023-05-16T15:34:36.370Z,24.70
2023-05-16T15:37:04.408Z,24.66
2023-05-16T15:39:32.445Z,24.65
2023-05-16T15:42:10.617Z,24.55
2023-05-16T15:44:40.479Z,24.51
2023-05-16T15:47:10.770Z,24.48
2023-05-16T15:49:38.740Z,24.45
2023-05-16T15:52:06.799Z,24.42
2023-05-16T15:54:34.823Z,24.41
2023-05-16T15:57:03.901Z,24.37
2023-05-16T15:59:31.896Z,24.40
2023-05-16T16:01:59.864Z,24.45
2023-05-16T16:04:29.285Z,24.46
2023-05-16T16:06:57.277Z,24.50
2023-05-16T16:09:25.351Z,24.51
2023-05-16T16:11:56.408Z,24.51
2023-05-16T16:14:25.350Z,24.47
2023-05-16T16:16:53.344Z,24.46
2023-05-16T16:19:21.480Z,24.38
2023-05-16T16:21:51.218Z,24.30
2023-05-16T16:24:20.193Z,24.20
2023-05-16T16:26:48.199Z,24.09
2023-05-16T16:29:16.333Z,23.99
2023-05-16T16:31:44.447Z,23.95
2023-05-16T16:34:12.513Z,23.89
2023-05-16T16:36:40.906Z,23.78
2023-05-16T16:39:10.338Z,23.70
2023-05-16T16:41:38.407Z,23.70
2023-05-16T16:44:06.748Z,23.70
2023-05-16T16:46:35.015Z,23.64
2023-05-16T16:49:03.156Z,23.58
2023-05-16T16:51:31.211Z,23.52
2023-05-16T16:53:59.822Z,23.46
2023-05-16T16:56:30.085Z,23.40
2023-05-16T16:58:58.019Z,23.32
2023-05-16T17:01:28.990Z,23.21
2023-05-16T17:03:57.978Z,23.14
2023-05-16T17:06:26.449Z,23.09
2023-05-16T17:08:54.728Z,23.02
2023-05-16T17:11:23.649Z,22.99
2023-05-16T17:13:55.303Z,22.90
2023-05-16T17:16:23.354Z,22.91
2023-05-16T17:18:52.444Z,22.87
2023-05-16T17:21:21.053Z,22.84
2023-05-16T17:23:50.490Z,22.83
2023-05-16T17:26:18.514Z,22.80
2023-05-16T17:28:46.628Z,22.65
2023-05-16T17:31:15.956Z,22.68
2023-05-16T17:33:44.484Z,22.63
2023-05-16T17:36:12.478Z,22.55
2023-05-16T17:38:40.446Z,22.46
2023-05-16T17:41:08.389Z,22.38
2023-05-16T17:43:36.363Z,22.23
2023-05-16T17:46:04.346Z,22.10
2023-05-16T17:48:33.844Z,22.03
2023-05-16T17:51:02.444Z,21.95
2023-05-16T17:53:30.744Z,21.85
2023-05-16T17:55:58.720Z,21.75
2023-05-16T17:58:26.877Z,21.66
2023-05-16T18:00:55.265Z,21.69
2023-05-16T18:03:23.313Z,21.73
2023-05-16T18:05:52.792Z,21.56
2023-05-16T18:08:21.275Z,21.58
2023-05-16T18:10:52.437Z,21.61
2023-05-16T18:13:20.716Z,21.65
2023-05-16T18:15:48.685Z,21.62
2023-05-16T18:18:17.570Z,21.64
2023-05-16T18:20:46.237Z,21.63
2023-05-16T18:23:15.663Z,21.64
2023-05-16T18:25:43.664Z,21.63
2023-05-16T18:28:11.720Z,21.61
2023-05-16T18:30:39.660Z,21.57
2023-05-16T18:33:07.729Z,21.50
2023-05-16T18:35:35.745Z,21.49
2023-05-16T18:38:04.127Z,21.49
2023-05-16T18:40:33.885Z,21.43
2023-05-16T18:43:01.998Z,21.36
2023-05-16T18:45:30.320Z,21.29
2023-05-16T18:47:58.579Z,21.27
2023-05-16T18:50:27.814Z,21.24
2023-05-16T18:52:57.621Z,21.19
2023-05-16T18:55:25.824Z,21.10
2023-05-16T18:57:55.301Z,21.08
2023-05-16T19:00:23.444Z,21.05
2023-05-16T19:02:51.879Z,20.96
2023-05-16T19:05:20.058Z,20.85
2023-05-16T19:07:48.152Z,20.70
2023-05-16T19:10:16.124Z,20.60
2023-05-16T19:12:46.852Z,20.53
2023-05-16T19:15:16.242Z,20.42
2023-05-16T19:17:44.320Z,20.37
2023-05-16T19:20:12.549Z,20.31
2023-05-16T19:22:40.587Z,20.22
2023-05-16T19:25:09.295Z,20.14
2023-05-16T19:27:37.300Z,20.10
2023-05-16T19:30:06.098Z,20.07
2023-05-16T19:32:35.452Z,20.06
2023-05-16T19:35:04.190Z,20.05
2023-05-16T19:37:32.224Z,20.04
2023-05-16T19:40:00.177Z,20.00
2023-05-16T19:42:28.172Z,19.99
2023-05-16T19:44:56.112Z,19.97
2023-05-16T19:47:24.335Z,19.93
2023-05-16T19:49:53.705Z,19.93
2023-05-16T19:52:21.673Z,19.92
2023-05-16T19:54:49.768Z,19.92
2023-05-16T19:57:17.741Z,19.96
2023-05-16T19:59:45.716Z,19.97
2023-05-16T20:02:14.970Z,19.97
2023-05-16T20:04:43.144Z,19.95
2023-05-16T20:07:12.645Z,19.93
2023-05-16T20:09:40.720Z,19.92
2023-05-16T20:12:09.648Z,19.90
2023-05-16T20:14:37.647Z,19.88
2023-05-16T20:17:05.846Z,19.83
2023-05-16T20:19:35.496Z,19.73
2023-05-16T20:22:03.765Z,19.74
2023-05-16T20:24:33.155Z,19.72
2023-05-16T20:27:01.557Z,19.66
2023-05-16T20:29:30.444Z,19.66
2023-05-16T20:31:58.513Z,19.63
2023-05-16T20:34:26.574Z,19.63
2023-05-16T20:36:54.608Z,19.58
2023-05-16T20:39:22.594Z,19.53
2023-05-16T20:41:51.947Z,19.61
2023-05-16T20:44:19.946Z,19.64
2023-05-16T20:46:48.002Z,19.64
2023-05-16T20:49:16.009Z,19.67
2023-05-16T20:51:44.011Z,19.69
2023-05-16T20:54:12.934Z,19.70
2023-05-16T20:56:41.055Z,19.69
2023-05-16T20:59:10.411Z,19.77
2023-05-16T21:01:38.391Z,19.78
2023-05-16T21:04:06.518Z,19.80
2023-05-16T21:06:34.520Z,19.81
2023-05-16T21:09:02.753Z,19.80
2023-05-16T21:11:32.798Z,19.78
2023-05-16T21:14:00.740Z,19.71
2023-05-16T21:16:31.251Z,19.84
2023-05-16T21:19:01.698Z,19.73
2023-05-16T21:21:29.960Z,19.72
2023-05-16T21:23:57.970Z,19.68
2023-05-16T21:26:28.714Z,19.66
2023-05-16T21:28:56.646Z,19.63
2023-05-16T21:31:24.590Z,19.62
2023-05-16T21:33:53.997Z,19.62
2023-05-16T21:36:22.331Z,19.57
2023-05-16T21:38:50.377Z,19.51
2023-05-16T21:41:18.418Z,19.51
2023-05-16T21:43:46.371Z,19.51
2023-05-16T21:46:14.516Z,19.50
2023-05-16T21:48:42.534Z,19.49
2023-05-16T21:51:11.976Z,19.49
2023-05-16T21:53:39.937Z,19.48
2023-05-16T21:56:08.146Z,19.44
2023-05-16T21:58:36.079Z,19.45
2023-05-16T22:01:04.088Z,19.47
2023-05-16T22:03:32.177Z,19.45
2023-05-16T22:06:00.236Z,19.52
2023-05-16T22:08:29.666Z,19.61
2023-05-16T22:10:57.692Z,19.63
2023-05-16T22:13:25.891Z,19.69
2023-05-16T22:16:03.903Z,19.77
2023-05-16T22:18:33.344Z,19.76
2023-05-16T22:21:01.818Z,19.78
2023-05-16T22:23:31.266Z,19.81
2023-05-16T22:25:59.233Z,19.79
2023-05-16T22:28:27.370Z,19.77
2023-05-16T22:30:55.382Z,19.80
2023-05-16T22:33:24.193Z,19.89
2023-05-16T22:35:52.285Z,19.86
2023-05-16T22:38:20.276Z,19.86
2023-05-16T22:40:49.618Z,19.80
2023-05-16T22:43:17.602Z,19.79
2023-05-16T22:45:45.576Z,19.80
2023-05-16T22:48:13.775Z,19.63
2023-05-16T22:50:41.844Z,19.26
2023-05-16T22:53:09.812Z,19.04
2023-05-16T22:55:37.810Z,18.81
2023-05-16T22:58:07.265Z,18.57
2023-05-16T23:00:35.253Z,18.36
2023-05-16T23:03:03.326Z,18.17
2023-05-16T23:05:31.384Z,18.03
2023-05-16T23:07:59.459Z,17.89
2023-05-16T23:10:27.404Z,17.67
2023-05-16T23:12:55.535Z,17.37
2023-05-16T23:15:24.910Z,17.06
2023-05-16T23:17:52.998Z,16.79
2023-05-16T23:20:21.059Z,16.58
2023-05-16T23:22:48.996Z,16.24
2023-05-16T23:25:16.982Z,16.37
2023-05-16T23:27:44.963Z,16.35
2023-05-16T23:30:13.508Z,16.27
2023-05-16T23:32:42.860Z,16.20
2023-05-16T23:35:10.936Z,16.14
2023-05-16T23:37:38.895Z,16.09
2023-05-16T23:40:08.293Z,16.08
2023-05-16T23:42:36.780Z,16.09
2023-05-16T23:45:05.179Z,15.99
2023-05-16T23:47:33.261Z,15.91
2023-05-16T23:50:03.618Z,15.83
2023-05-16T23:52:31.622Z,15.75
2023-05-16T23:54:59.579Z,15.68
2023-05-16T23:57:27.584Z,15.61
2023-05-16T23:59:55.597Z,15.57
